sensor_id;sensor_type;location;lat;lon;timestamp;temperature;humidity
16871;DHT22;8552;48.120;-1.456;2022-09-09T00:00:37;15.20;99.90
16871;DHT22;8552;48.120;-1.456;2022-09-09T00:05:44;15.10;99.90
16871;DHT22;8552;48.120;-1.456;2022-09-09T00:08:20;15.10;99.90
16871;DHT22;8552;48.120;-1.456;2022-09-09T00:10:51;15.10;99.90
16871;DHT22;8552;48.120;-1.456;2022-09-09T00:13:37;15.00;99.90
16871;DHT22;8552;48.120;-1.456;2022-09-09T00:16:09;15.00;99.90
16871;DHT22;8552;48.120;-1.456;2022-09-09T00:21:17;14.90;99.90
16871;DHT22;8552;48.120;-1.456;2022-09-09T00:23:50;14.90;99.90
16871;DHT22;8552;48.120;-1.456;2022-09-09T00:31:26;14.80;99.90
16871;DHT22;8552;48.120;-1.456;2022-09-09T00:33:53;14.80;99.90
16871;DHT22;8552;48.120;-1.456;2022-09-09T00:36:23;14.70;99.90
16871;DHT22;8552;48.120;-1.456;2022-09-09T00:38:59;14.70;99.90
16871;DHT22;8552;48.120;-1.456;2022-09-09T00:46:56;14.60;99.90
16871;DHT22;8552;48.120;-1.456;2022-09-09T00:55:19;14.70;99.90
16871;DHT22;8552;48.120;-1.456;2022-09-09T00:57:50;14.70;99.90
16871;DHT22;8552;48.120;-1.456;2022-09-09T01:00:41;14.70;99.90
16871;DHT22;8552;48.120;-1.456;2022-09-09T01:08:22;14.60;99.90
16871;DHT22;8552;48.120;-1.456;2022-09-09T01:10:54;14.70;99.90
16871;DHT22;8552;48.120;-1.456;2022-09-09T01:13:25;14.60;99.90
16871;DHT22;8552;48.120;-1.456;2022-09-09T01:15:53;14.60;99.90
16871;DHT22;8552;48.120;-1.456;2022-09-09T01:18:27;14.50;99.90
16871;DHT22;8552;48.120;-1.456;2022-09-09T01:21:40;14.60;99.90
16871;DHT22;8552;48.120;-1.456;2022-09-09T01:24:19;14.50;99.90
16871;DHT22;8552;48.120;-1.456;2022-09-09T01:26:47;14.50;99.90
16871;DHT22;8552;48.120;-1.456;2022-09-09T01:29:16;14.50;99.90
16871;DHT22;8552;48.120;-1.456;2022-09-09T01:31:53;14.50;99.90
16871;DHT22;8552;48.120;-1.456;2022-09-09T01:34:19;14.50;99.90
16871;DHT22;8552;48.120;-1.456;2022-09-09T01:37:06;14.50;99.90
16871;DHT22;8552;48.120;-1.456;2022-09-09T01:39:34;14.40;99.90
16871;DHT22;8552;48.120;-1.456;2022-09-09T01:42:01;14.40;99.90
16871;DHT22;8552;48.120;-1.456;2022-09-09T01:44:28;14.40;99.90
16871;DHT22;8552;48.120;-1.456;2022-09-09T01:46:55;14.40;99.90
16871;DHT22;8552;48.120;-1.456;2022-09-09T01:49:21;14.40;99.90
16871;DHT22;8552;48.120;-1.456;2022-09-09T01:51:51;14.50;99.90
16871;DHT22;8552;48.120;-1.456;2022-09-09T01:54:18;14.50;99.90
16871;DHT22;8552;48.120;-1.456;2022-09-09T02:02:26;14.50;99.90
16871;DHT22;8552;48.120;-1.456;2022-09-09T02:05:02;14.40;99.90
16871;DHT22;8552;48.120;-1.456;2022-09-09T02:07:43;14.40;99.90
16871;DHT22;8552;48.120;-1.456;2022-09-09T02:12:47;14.30;99.90
16871;DHT22;8552;48.120;-1.456;2022-09-09T02:15:26;14.30;99.90
16871;DHT22;8552;48.120;-1.456;2022-09-09T02:17:56;14.30;99.90
16871;DHT22;8552;48.120;-1.456;2022-09-09T02:20:23;14.30;99.90
16871;DHT22;8552;48.120;-1.456;2022-09-09T02:22:51;14.30;99.90
16871;DHT22;8552;48.120;-1.456;2022-09-09T02:25:21;14.30;99.90
16871;DHT22;8552;48.120;-1.456;2022-09-09T02:27:50;14.30;99.90
16871;DHT22;8552;48.120;-1.456;2022-09-09T02:30:17;14.20;99.90
16871;DHT22;8552;48.120;-1.456;2022-09-09T02:32:44;14.20;99.90
16871;DHT22;8552;48.120;-1.456;2022-09-09T02:35:15;14.30;99.90
16871;DHT22;8552;48.120;-1.456;2022-09-09T02:37:44;14.30;99.90
16871;DHT22;8552;48.120;-1.456;2022-09-09T02:40:14;14.30;99.90
16871;DHT22;8552;48.120;-1.456;2022-09-09T02:42:42;14.30;99.90
16871;DHT22;8552;48.120;-1.456;2022-09-09T02:45:10;14.40;99.90
16871;DHT22;8552;48.120;-1.456;2022-09-09T02:50:20;14.50;99.90
16871;DHT22;8552;48.120;-1.456;2022-09-09T02:53:07;14.40;99.90
16871;DHT22;8552;48.120;-1.456;2022-09-09T02:58:13;14.50;99.90
16871;DHT22;8552;48.120;-1.456;2022-09-09T03:00:42;14.50;99.90
16871;DHT22;8552;48.120;-1.456;2022-09-09T03:03:08;14.50;99.90
16871;DHT22;8552;48.120;-1.456;2022-09-09T03:05:35;14.60;99.90
16871;DHT22;8552;48.120;-1.456;2022-09-09T03:08:02;14.60;99.90
16871;DHT22;8552;48.120;-1.456;2022-09-09T03:10:28;14.60;99.90
16871;DHT22;8552;48.120;-1.456;2022-09-09T03:12:54;14.60;99.90
16871;DHT22;8552;48.120;-1.456;2022-09-09T03:15:21;14.70;99.90
16871;DHT22;8552;48.120;-1.456;2022-09-09T03:17:46;14.70;99.90
16871;DHT22;8552;48.120;-1.456;2022-09-09T03:20:12;14.70;99.90
16871;DHT22;8552;48.120;-1.456;2022-09-09T03:22:38;14.70;99.90
16871;DHT22;8552;48.120;-1.456;2022-09-09T03:25:04;14.70;99.90
16871;DHT22;8552;48.120;-1.456;2022-09-09T03:27:31;14.70;99.90
16871;DHT22;8552;48.120;-1.456;2022-09-09T03:29:57;14.80;99.90
16871;DHT22;8552;48.120;-1.456;2022-09-09T03:32:23;14.80;99.90
16871;DHT22;8552;48.120;-1.456;2022-09-09T03:34:51;14.80;99.90
16871;DHT22;8552;48.120;-1.456;2022-09-09T03:37:18;14.80;99.90
16871;DHT22;8552;48.120;-1.456;2022-09-09T03:39:44;14.80;99.90
16871;DHT22;8552;48.120;-1.456;2022-09-09T03:42:12;14.90;99.90
16871;DHT22;8552;48.120;-1.456;2022-09-09T03:44:40;14.90;99.90
16871;DHT22;8552;48.120;-1.456;2022-09-09T03:47:07;14.90;99.90
16871;DHT22;8552;48.120;-1.456;2022-09-09T03:49:33;14.90;99.90
16871;DHT22;8552;48.120;-1.456;2022-09-09T03:51:58;14.90;99.90
16871;DHT22;8552;48.120;-1.456;2022-09-09T03:54:24;14.90;99.90
16871;DHT22;8552;48.120;-1.456;2022-09-09T03:56:50;14.90;99.90
16871;DHT22;8552;48.120;-1.456;2022-09-09T03:59:16;14.90;99.90
16871;DHT22;8552;48.120;-1.456;2022-09-09T04:01:42;14.90;99.90
16871;DHT22;8552;48.120;-1.456;2022-09-09T04:04:08;14.90;99.90
16871;DHT22;8552;48.120;-1.456;2022-09-09T04:06:35;14.90;99.90
16871;DHT22;8552;48.120;-1.456;2022-09-09T04:09:00;14.90;99.90
16871;DHT22;8552;48.120;-1.456;2022-09-09T04:11:28;14.90;99.90
16871;DHT22;8552;48.120;-1.456;2022-09-09T04:13:53;14.90;99.90
16871;DHT22;8552;48.120;-1.456;2022-09-09T04:16:19;14.90;99.90
16871;DHT22;8552;48.120;-1.456;2022-09-09T04:18:45;14.90;99.90
16871;DHT22;8552;48.120;-1.456;2022-09-09T04:21:11;14.80;99.90
16871;DHT22;8552;48.120;-1.456;2022-09-09T04:23:38;14.90;99.90
16871;DHT22;8552;48.120;-1.456;2022-09-09T04:26:05;14.80;99.90
16871;DHT22;8552;48.120;-1.456;2022-09-09T04:28:32;14.80;99.90
16871;DHT22;8552;48.120;-1.456;2022-09-09T04:31:07;14.80;99.90
16871;DHT22;8552;48.120;-1.456;2022-09-09T04:33:33;14.80;99.90
16871;DHT22;8552;48.120;-1.456;2022-09-09T04:35:59;14.70;99.90
16871;DHT22;8552;48.120;-1.456;2022-09-09T04:38:25;14.70;99.90
16871;DHT22;8552;48.120;-1.456;2022-09-09T04:40:52;14.70;99.90
16871;DHT22;8552;48.120;-1.456;2022-09-09T04:43:19;14.60;99.90
16871;DHT22;8552;48.120;-1.456;2022-09-09T04:45:50;14.60;99.90
16871;DHT22;8552;48.120;-1.456;2022-09-09T04:48:17;14.60;99.90
16871;DHT22;8552;48.120;-1.456;2022-09-09T04:50:42;14.60;99.90
16871;DHT22;8552;48.120;-1.456;2022-09-09T04:53:08;14.60;99.90
16871;DHT22;8552;48.120;-1.456;2022-09-09T04:55:34;14.50;99.90
16871;DHT22;8552;48.120;-1.456;2022-09-09T04:58:08;14.60;99.90
16871;DHT22;8552;48.120;-1.456;2022-09-09T05:00:36;14.50;99.90
16871;DHT22;8552;48.120;-1.456;2022-09-09T05:03:03;14.50;99.90
16871;DHT22;8552;48.120;-1.456;2022-09-09T05:05:30;14.40;99.90
16871;DHT22;8552;48.120;-1.456;2022-09-09T05:08:04;14.40;99.90
16871;DHT22;8552;48.120;-1.456;2022-09-09T05:10:31;14.40;99.90
16871;DHT22;8552;48.120;-1.456;2022-09-09T05:12:56;14.40;99.90
16871;DHT22;8552;48.120;-1.456;2022-09-09T05:15:22;14.40;99.90
16871;DHT22;8552;48.120;-1.456;2022-09-09T05:17:48;14.30;99.90
16871;DHT22;8552;48.120;-1.456;2022-09-09T05:20:13;14.30;99.90
16871;DHT22;8552;48.120;-1.456;2022-09-09T05:22:39;14.30;99.90
16871;DHT22;8552;48.120;-1.456;2022-09-09T05:25:06;14.30;99.90
16871;DHT22;8552;48.120;-1.456;2022-09-09T05:27:34;14.30;99.90
16871;DHT22;8552;48.120;-1.456;2022-09-09T05:29:59;14.30;99.90
16871;DHT22;8552;48.120;-1.456;2022-09-09T05:32:26;14.30;99.90
16871;DHT22;8552;48.120;-1.456;2022-09-09T05:34:53;14.30;99.90
16871;DHT22;8552;48.120;-1.456;2022-09-09T05:37:19;14.30;99.90
16871;DHT22;8552;48.120;-1.456;2022-09-09T05:39:44;14.30;99.90
16871;DHT22;8552;48.120;-1.456;2022-09-09T05:42:10;14.30;99.90
16871;DHT22;8552;48.120;-1.456;2022-09-09T05:44:36;14.20;99.90
16871;DHT22;8552;48.120;-1.456;2022-09-09T05:47:03;14.20;99.90
16871;DHT22;8552;48.120;-1.456;2022-09-09T05:49:28;14.20;99.90
16871;DHT22;8552;48.120;-1.456;2022-09-09T05:51:54;14.20;99.90
16871;DHT22;8552;48.120;-1.456;2022-09-09T05:54:20;14.20;99.90
16871;DHT22;8552;48.120;-1.456;2022-09-09T05:56:45;14.20;99.90
16871;DHT22;8552;48.120;-1.456;2022-09-09T05:59:12;14.20;99.90
16871;DHT22;8552;48.120;-1.456;2022-09-09T06:01:38;14.20;99.90
16871;DHT22;8552;48.120;-1.456;2022-09-09T06:04:07;14.10;99.90
16871;DHT22;8552;48.120;-1.456;2022-09-09T06:06:36;14.10;99.90
16871;DHT22;8552;48.120;-1.456;2022-09-09T06:09:03;14.10;99.90
16871;DHT22;8552;48.120;-1.456;2022-09-09T06:11:33;14.10;99.90
16871;DHT22;8552;48.120;-1.456;2022-09-09T06:13:59;14.10;99.90
16871;DHT22;8552;48.120;-1.456;2022-09-09T06:16:27;14.20;99.90
16871;DHT22;8552;48.120;-1.456;2022-09-09T06:18:54;14.20;99.90
16871;DHT22;8552;48.120;-1.456;2022-09-09T06:21:35;14.20;99.90
16871;DHT22;8552;48.120;-1.456;2022-09-09T06:24:05;14.20;99.90
16871;DHT22;8552;48.120;-1.456;2022-09-09T06:26:32;14.20;99.90
16871;DHT22;8552;48.120;-1.456;2022-09-09T06:28:59;14.20;99.90
16871;DHT22;8552;48.120;-1.456;2022-09-09T06:31:27;14.30;99.90
16871;DHT22;8552;48.120;-1.456;2022-09-09T06:33:56;14.30;99.90
16871;DHT22;8552;48.120;-1.456;2022-09-09T06:36:27;14.40;99.90
16871;DHT22;8552;48.120;-1.456;2022-09-09T06:38:54;14.30;99.90
16871;DHT22;8552;48.120;-1.456;2022-09-09T06:41:23;14.40;99.90
16871;DHT22;8552;48.120;-1.456;2022-09-09T06:43:49;14.50;99.90
16871;DHT22;8552;48.120;-1.456;2022-09-09T06:46:16;14.50;99.90
16871;DHT22;8552;48.120;-1.456;2022-09-09T06:48:43;14.60;99.90
16871;DHT22;8552;48.120;-1.456;2022-09-09T06:53:44;14.80;99.90
16871;DHT22;8552;48.120;-1.456;2022-09-09T06:58:37;15.00;99.90
16871;DHT22;8552;48.120;-1.456;2022-09-09T07:01:08;15.00;99.90
16871;DHT22;8552;48.120;-1.456;2022-09-09T07:03:35;15.10;99.90
16871;DHT22;8552;48.120;-1.456;2022-09-09T07:06:02;15.20;99.90
16871;DHT22;8552;48.120;-1.456;2022-09-09T07:08:29;15.20;99.90
16871;DHT22;8552;48.120;-1.456;2022-09-09T07:11:03;15.20;99.90
16871;DHT22;8552;48.120;-1.456;2022-09-09T07:13:30;15.20;99.90
16871;DHT22;8552;48.120;-1.456;2022-09-09T07:16:13;15.30;99.90
16871;DHT22;8552;48.120;-1.456;2022-09-09T07:18:41;15.30;99.90
16871;DHT22;8552;48.120;-1.456;2022-09-09T07:21:09;15.30;99.90
16871;DHT22;8552;48.120;-1.456;2022-09-09T07:23:35;15.40;99.90
16871;DHT22;8552;48.120;-1.456;2022-09-09T07:26:02;15.40;99.90
16871;DHT22;8552;48.120;-1.456;2022-09-09T07:28:28;15.60;99.90
16871;DHT22;8552;48.120;-1.456;2022-09-09T07:30:58;15.70;99.90
16871;DHT22;8552;48.120;-1.456;2022-09-09T07:33:25;15.90;99.90
16871;DHT22;8552;48.120;-1.456;2022-09-09T07:35:52;16.10;99.90
16871;DHT22;8552;48.120;-1.456;2022-09-09T07:38:19;16.10;99.90
16871;DHT22;8552;48.120;-1.456;2022-09-09T07:40:45;16.20;99.90
16871;DHT22;8552;48.120;-1.456;2022-09-09T07:43:11;16.20;99.90
16871;DHT22;8552;48.120;-1.456;2022-09-09T07:45:37;16.20;99.90
16871;DHT22;8552;48.120;-1.456;2022-09-09T07:48:03;16.40;99.90
16871;DHT22;8552;48.120;-1.456;2022-09-09T07:50:29;16.40;99.90
16871;DHT22;8552;48.120;-1.456;2022-09-09T07:52:55;16.40;99.90
16871;DHT22;8552;48.120;-1.456;2022-09-09T07:55:24;16.50;99.90
16871;DHT22;8552;48.120;-1.456;2022-09-09T07:57:55;16.50;99.90
16871;DHT22;8552;48.120;-1.456;2022-09-09T08:00:22;16.60;99.90
16871;DHT22;8552;48.120;-1.456;2022-09-09T08:02:52;16.50;99.90
16871;DHT22;8552;48.120;-1.456;2022-09-09T08:05:19;16.60;99.90
16871;DHT22;8552;48.120;-1.456;2022-09-09T08:07:45;16.70;99.90
16871;DHT22;8552;48.120;-1.456;2022-09-09T08:10:11;16.50;99.90
16871;DHT22;8552;48.120;-1.456;2022-09-09T08:12:36;16.60;99.90
16871;DHT22;8552;48.120;-1.456;2022-09-09T08:15:02;16.60;99.90
16871;DHT22;8552;48.120;-1.456;2022-09-09T08:17:28;16.60;99.90
16871;DHT22;8552;48.120;-1.456;2022-09-09T08:19:54;16.80;99.90
16871;DHT22;8552;48.120;-1.456;2022-09-09T08:22:20;16.90;99.90
16871;DHT22;8552;48.120;-1.456;2022-09-09T08:24:46;17.10;99.90
16871;DHT22;8552;48.120;-1.456;2022-09-09T08:27:12;17.30;99.90
16871;DHT22;8552;48.120;-1.456;2022-09-09T08:29:38;17.60;99.90
16871;DHT22;8552;48.120;-1.456;2022-09-09T08:32:04;17.70;99.90
16871;DHT22;8552;48.120;-1.456;2022-09-09T08:34:29;17.80;99.90
16871;DHT22;8552;48.120;-1.456;2022-09-09T08:36:56;17.90;99.90
16871;DHT22;8552;48.120;-1.456;2022-09-09T08:39:22;17.80;99.90
16871;DHT22;8552;48.120;-1.456;2022-09-09T08:47:25;17.90;99.90
16871;DHT22;8552;48.120;-1.456;2022-09-09T08:52:43;17.90;99.90
16871;DHT22;8552;48.120;-1.456;2022-09-09T08:57:46;18.10;99.90
16871;DHT22;8552;48.120;-1.456;2022-09-09T09:00:13;18.10;99.90
16871;DHT22;8552;48.120;-1.456;2022-09-09T09:03:07;18.30;99.90
16871;DHT22;8552;48.120;-1.456;2022-09-09T09:08:26;18.10;99.90
16871;DHT22;8552;48.120;-1.456;2022-09-09T09:10:57;18.20;99.90
16871;DHT22;8552;48.120;-1.456;2022-09-09T09:13:48;18.30;99.90
16871;DHT22;8552;48.120;-1.456;2022-09-09T09:16:26;18.30;99.90
16871;DHT22;8552;48.120;-1.456;2022-09-09T09:18:54;18.40;99.90
16871;DHT22;8552;48.120;-1.456;2022-09-09T09:21:38;18.40;99.90
16871;DHT22;8552;48.120;-1.456;2022-09-09T09:24:16;18.60;99.90
16871;DHT22;8552;48.120;-1.456;2022-09-09T09:26:43;18.70;99.90
16871;DHT22;8552;48.120;-1.456;2022-09-09T09:29:19;18.80;99.90
16871;DHT22;8552;48.120;-1.456;2022-09-09T09:31:51;19.10;99.90
16871;DHT22;8552;48.120;-1.456;2022-09-09T09:34:17;19.20;99.90
16871;DHT22;8552;48.120;-1.456;2022-09-09T09:37:00;19.30;99.90
16871;DHT22;8552;48.120;-1.456;2022-09-09T09:39:31;19.40;99.90
16871;DHT22;8552;48.120;-1.456;2022-09-09T09:42:12;19.30;99.90
16871;DHT22;8552;48.120;-1.456;2022-09-09T09:44:41;19.30;99.90
16871;DHT22;8552;48.120;-1.456;2022-09-09T09:47:18;19.30;99.90
16871;DHT22;8552;48.120;-1.456;2022-09-09T09:49:52;19.30;99.90
16871;DHT22;8552;48.120;-1.456;2022-09-09T09:52:23;19.20;99.90
16871;DHT22;8552;48.120;-1.456;2022-09-09T09:54:50;19.20;99.90
16871;DHT22;8552;48.120;-1.456;2022-09-09T09:57:18;19.10;99.90
16871;DHT22;8552;48.120;-1.456;2022-09-09T09:59:47;19.10;99.90
16871;DHT22;8552;48.120;-1.456;2022-09-09T10:02:20;19.00;99.90
16871;DHT22;8552;48.120;-1.456;2022-09-09T10:05:04;19.30;99.90
16871;DHT22;8552;48.120;-1.456;2022-09-09T10:07:30;19.70;99.90
16871;DHT22;8552;48.120;-1.456;2022-09-09T10:09:57;19.80;99.90
16871;DHT22;8552;48.120;-1.456;2022-09-09T10:15:41;20.40;99.90
16871;DHT22;8552;48.120;-1.456;2022-09-09T10:23:44;19.80;99.90
16871;DHT22;8552;48.120;-1.456;2022-09-09T10:40:41;20.60;99.90
16871;DHT22;8552;48.120;-1.456;2022-09-09T10:43:32;20.90;99.90
16871;DHT22;8552;48.120;-1.456;2022-09-09T10:54:06;20.90;99.90
16871;DHT22;8552;48.120;-1.456;2022-09-09T10:56:33;20.70;99.90
16871;DHT22;8552;48.120;-1.456;2022-09-09T10:59:04;20.50;99.90
16871;DHT22;8552;48.120;-1.456;2022-09-09T11:06:46;20.30;99.90
16871;DHT22;8552;48.120;-1.456;2022-09-09T11:09:19;20.30;99.90
16871;DHT22;8552;48.120;-1.456;2022-09-09T11:11:54;20.30;99.90
16871;DHT22;8552;48.120;-1.456;2022-09-09T11:14:45;20.40;99.90
16871;DHT22;8552;48.120;-1.456;2022-09-09T11:17:16;20.50;99.90
16871;DHT22;8552;48.120;-1.456;2022-09-09T11:19:44;20.40;99.90
16871;DHT22;8552;48.120;-1.456;2022-09-09T11:22:26;20.30;99.90
16871;DHT22;8552;48.120;-1.456;2022-09-09T11:25:48;20.30;99.90
16871;DHT22;8552;48.120;-1.456;2022-09-09T11:36:02;21.40;99.90
16871;DHT22;8552;48.120;-1.456;2022-09-09T11:41:07;21.40;99.90
16871;DHT22;8552;48.120;-1.456;2022-09-09T11:43:49;21.20;99.90
16871;DHT22;8552;48.120;-1.456;2022-09-09T11:46:22;21.20;99.90
16871;DHT22;8552;48.120;-1.456;2022-09-09T11:49:05;21.40;99.90
16871;DHT22;8552;48.120;-1.456;2022-09-09T11:51:32;21.80;99.90
16871;DHT22;8552;48.120;-1.456;2022-09-09T11:54:00;21.50;99.90
16871;DHT22;8552;48.120;-1.456;2022-09-09T11:56:42;21.40;99.90
16871;DHT22;8552;48.120;-1.456;2022-09-09T11:59:27;21.40;99.90
16871;DHT22;8552;48.120;-1.456;2022-09-09T12:02:00;21.60;99.90
16871;DHT22;8552;48.120;-1.456;2022-09-09T12:04:33;21.70;99.90
16871;DHT22;8552;48.120;-1.456;2022-09-09T12:07:05;21.80;99.90
16871;DHT22;8552;48.120;-1.456;2022-09-09T12:09:46;21.60;99.90
16871;DHT22;8552;48.120;-1.456;2022-09-09T12:19:47;21.90;99.90
16871;DHT22;8552;48.120;-1.456;2022-09-09T12:24:47;21.70;99.90
16871;DHT22;8552;48.120;-1.456;2022-09-09T12:27:23;21.60;99.90
16871;DHT22;8552;48.120;-1.456;2022-09-09T12:29:58;21.80;99.90
16871;DHT22;8552;48.120;-1.456;2022-09-09T12:32:27;21.60;99.90
16871;DHT22;8552;48.120;-1.456;2022-09-09T12:35:10;21.40;99.90
16871;DHT22;8552;48.120;-1.456;2022-09-09T12:37:46;21.70;99.90
16871;DHT22;8552;48.120;-1.456;2022-09-09T12:40:29;21.80;99.90
16871;DHT22;8552;48.120;-1.456;2022-09-09T12:42:56;21.90;99.90
16871;DHT22;8552;48.120;-1.456;2022-09-09T12:45:24;22.10;99.90
16871;DHT22;8552;48.120;-1.456;2022-09-09T12:47:55;22.20;99.90
16871;DHT22;8552;48.120;-1.456;2022-09-09T12:50:22;22.30;99.90
16871;DHT22;8552;48.120;-1.456;2022-09-09T12:52:52;22.50;99.90
16871;DHT22;8552;48.120;-1.456;2022-09-09T12:55:24;22.50;99.90
16871;DHT22;8552;48.120;-1.456;2022-09-09T12:57:51;22.70;99.90
16871;DHT22;8552;48.120;-1.456;2022-09-09T13:00:22;23.00;99.90
16871;DHT22;8552;48.120;-1.456;2022-09-09T13:02:57;23.10;99.90
16871;DHT22;8552;48.120;-1.456;2022-09-09T13:05:34;23.30;99.90
16871;DHT22;8552;48.120;-1.456;2022-09-09T13:08:04;23.40;99.90
16871;DHT22;8552;48.120;-1.456;2022-09-09T13:10:33;23.30;99.90
16871;DHT22;8552;48.120;-1.456;2022-09-09T13:13:02;23.70;99.90
16871;DHT22;8552;48.120;-1.456;2022-09-09T13:15:30;24.20;99.90
16871;DHT22;8552;48.120;-1.456;2022-09-09T13:17:59;24.40;99.90
16871;DHT22;8552;48.120;-1.456;2022-09-09T13:20:26;24.50;99.90
16871;DHT22;8552;48.120;-1.456;2022-09-09T13:22:54;24.50;99.90
16871;DHT22;8552;48.120;-1.456;2022-09-09T13:25:24;24.40;99.90
16871;DHT22;8552;48.120;-1.456;2022-09-09T13:28:04;24.50;99.90
16871;DHT22;8552;48.120;-1.456;2022-09-09T13:30:35;24.30;99.90
16871;DHT22;8552;48.120;-1.456;2022-09-09T13:35:35;23.90;99.90
16871;DHT22;8552;48.120;-1.456;2022-09-09T13:38:14;23.70;99.90
16871;DHT22;8552;48.120;-1.456;2022-09-09T13:40:40;23.30;99.90
16871;DHT22;8552;48.120;-1.456;2022-09-09T13:43:22;22.90;99.90
16871;DHT22;8552;48.120;-1.456;2022-09-09T13:45:56;22.70;99.90
16871;DHT22;8552;48.120;-1.456;2022-09-09T13:48:23;22.40;99.90
16871;DHT22;8552;48.120;-1.456;2022-09-09T13:50:56;22.20;99.90
16871;DHT22;8552;48.120;-1.456;2022-09-09T13:53:22;22.10;99.90
16871;DHT22;8552;48.120;-1.456;2022-09-09T13:55:48;21.70;99.90
16871;DHT22;8552;48.120;-1.456;2022-09-09T13:58:16;21.60;99.90
16871;DHT22;8552;48.120;-1.456;2022-09-09T14:00:44;21.40;99.90
16871;DHT22;8552;48.120;-1.456;2022-09-09T14:03:10;21.20;99.90
16871;DHT22;8552;48.120;-1.456;2022-09-09T14:05:36;21.10;99.90
16871;DHT22;8552;48.120;-1.456;2022-09-09T14:08:07;20.90;99.90
16871;DHT22;8552;48.120;-1.456;2022-09-09T14:10:33;20.70;99.90
16871;DHT22;8552;48.120;-1.456;2022-09-09T14:13:02;20.10;99.90
16871;DHT22;8552;48.120;-1.456;2022-09-09T14:15:28;20.10;99.90
16871;DHT22;8552;48.120;-1.456;2022-09-09T14:17:54;20.10;99.90
16871;DHT22;8552;48.120;-1.456;2022-09-09T14:20:20;19.80;99.90
16871;DHT22;8552;48.120;-1.456;2022-09-09T14:22:46;19.90;99.90
16871;DHT22;8552;48.120;-1.456;2022-09-09T14:25:12;20.00;99.90
16871;DHT22;8552;48.120;-1.456;2022-09-09T14:27:40;20.00;99.90
16871;DHT22;8552;48.120;-1.456;2022-09-09T14:30:08;19.80;99.90
16871;DHT22;8552;48.120;-1.456;2022-09-09T14:32:34;19.90;99.90
16871;DHT22;8552;48.120;-1.456;2022-09-09T14:35:00;20.10;99.90
16871;DHT22;8552;48.120;-1.456;2022-09-09T14:37:27;20.10;99.90
16871;DHT22;8552;48.120;-1.456;2022-09-09T14:39:52;20.20;99.90
16871;DHT22;8552;48.120;-1.456;2022-09-09T14:42:19;20.30;99.90
16871;DHT22;8552;48.120;-1.456;2022-09-09T14:44:44;20.30;99.90
16871;DHT22;8552;48.120;-1.456;2022-09-09T14:47:10;20.50;99.90
16871;DHT22;8552;48.120;-1.456;2022-09-09T14:49:36;20.50;99.90
16871;DHT22;8552;48.120;-1.456;2022-09-09T14:52:03;20.50;99.90
16871;DHT22;8552;48.120;-1.456;2022-09-09T14:54:30;20.50;99.90
16871;DHT22;8552;48.120;-1.456;2022-09-09T14:56:56;20.60;99.90
16871;DHT22;8552;48.120;-1.456;2022-09-09T14:59:22;20.90;99.90
16871;DHT22;8552;48.120;-1.456;2022-09-09T15:01:48;20.70;99.90
16871;DHT22;8552;48.120;-1.456;2022-09-09T15:04:14;20.40;99.90
16871;DHT22;8552;48.120;-1.456;2022-09-09T15:06:40;20.10;99.90
16871;DHT22;8552;48.120;-1.456;2022-09-09T15:09:08;20.00;99.90
16871;DHT22;8552;48.120;-1.456;2022-09-09T15:11:36;20.00;99.90
16871;DHT22;8552;48.120;-1.456;2022-09-09T15:14:06;20.20;99.90
16871;DHT22;8552;48.120;-1.456;2022-09-09T15:16:32;20.30;99.90
16871;DHT22;8552;48.120;-1.456;2022-09-09T15:19:00;20.40;99.90
16871;DHT22;8552;48.120;-1.456;2022-09-09T15:21:28;20.20;99.90
16871;DHT22;8552;48.120;-1.456;2022-09-09T15:23:55;20.30;99.90
16871;DHT22;8552;48.120;-1.456;2022-09-09T15:26:22;20.40;99.90
16871;DHT22;8552;48.120;-1.456;2022-09-09T15:28:48;20.50;99.90
16871;DHT22;8552;48.120;-1.456;2022-09-09T15:31:26;20.60;99.90
16871;DHT22;8552;48.120;-1.456;2022-09-09T15:34:02;20.50;99.90
16871;DHT22;8552;48.120;-1.456;2022-09-09T15:36:33;20.60;99.90
16871;DHT22;8552;48.120;-1.456;2022-09-09T15:39:00;20.60;99.90
16871;DHT22;8552;48.120;-1.456;2022-09-09T15:41:27;20.80;99.90
16871;DHT22;8552;48.120;-1.456;2022-09-09T15:43:55;20.70;99.90
16871;DHT22;8552;48.120;-1.456;2022-09-09T15:48:55;20.50;99.90
16871;DHT22;8552;48.120;-1.456;2022-09-09T15:51:21;20.50;99.90
16871;DHT22;8552;48.120;-1.456;2022-09-09T15:53:51;20.40;99.90
16871;DHT22;8552;48.120;-1.456;2022-09-09T15:56:19;20.40;99.90
16871;DHT22;8552;48.120;-1.456;2022-09-09T15:58:44;20.30;99.90
16871;DHT22;8552;48.120;-1.456;2022-09-09T16:01:11;20.30;99.90
16871;DHT22;8552;48.120;-1.456;2022-09-09T16:03:40;20.30;99.90
16871;DHT22;8552;48.120;-1.456;2022-09-09T16:06:08;20.40;99.90
16871;DHT22;8552;48.120;-1.456;2022-09-09T16:08:37;20.50;99.90
16871;DHT22;8552;48.120;-1.456;2022-09-09T16:11:08;20.60;99.90
16871;DHT22;8552;48.120;-1.456;2022-09-09T16:13:35;20.50;99.90
16871;DHT22;8552;48.120;-1.456;2022-09-09T16:16:03;20.60;99.90
16871;DHT22;8552;48.120;-1.456;2022-09-09T16:18:37;20.70;99.90
16871;DHT22;8552;48.120;-1.456;2022-09-09T16:21:04;20.80;99.90
16871;DHT22;8552;48.120;-1.456;2022-09-09T16:23:32;20.80;99.90
16871;DHT22;8552;48.120;-1.456;2022-09-09T16:25:58;20.90;99.90
16871;DHT22;8552;48.120;-1.456;2022-09-09T16:28:23;21.10;99.90
16871;DHT22;8552;48.120;-1.456;2022-09-09T16:30:49;20.90;99.90
16871;DHT22;8552;48.120;-1.456;2022-09-09T16:33:16;21.00;99.90
16871;DHT22;8552;48.120;-1.456;2022-09-09T16:35:42;21.10;99.90
16871;DHT22;8552;48.120;-1.456;2022-09-09T16:38:13;21.20;99.90
16871;DHT22;8552;48.120;-1.456;2022-09-09T16:40:42;21.30;99.90
16871;DHT22;8552;48.120;-1.456;2022-09-09T16:43:09;21.20;99.90
16871;DHT22;8552;48.120;-1.456;2022-09-09T16:45:44;21.00;99.90
16871;DHT22;8552;48.120;-1.456;2022-09-09T16:48:11;20.80;99.90
16871;DHT22;8552;48.120;-1.456;2022-09-09T16:50:37;20.80;99.90
16871;DHT22;8552;48.120;-1.456;2022-09-09T16:53:05;20.80;99.90
16871;DHT22;8552;48.120;-1.456;2022-09-09T16:55:40;21.00;99.90
16871;DHT22;8552;48.120;-1.456;2022-09-09T16:58:12;21.10;99.90
16871;DHT22;8552;48.120;-1.456;2022-09-09T17:00:38;20.80;99.90
16871;DHT22;8552;48.120;-1.456;2022-09-09T17:03:04;20.50;99.90
16871;DHT22;8552;48.120;-1.456;2022-09-09T17:05:30;20.30;99.90
16871;DHT22;8552;48.120;-1.456;2022-09-09T17:07:58;20.30;99.90
16871;DHT22;8552;48.120;-1.456;2022-09-09T17:10:24;20.20;99.90
16871;DHT22;8552;48.120;-1.456;2022-09-09T17:12:50;20.20;99.90
16871;DHT22;8552;48.120;-1.456;2022-09-09T17:15:16;20.00;99.90
16871;DHT22;8552;48.120;-1.456;2022-09-09T17:17:43;19.90;99.90
16871;DHT22;8552;48.120;-1.456;2022-09-09T17:20:10;19.90;99.90
16871;DHT22;8552;48.120;-1.456;2022-09-09T17:22:36;19.90;99.90
16871;DHT22;8552;48.120;-1.456;2022-09-09T17:25:02;19.80;99.90
16871;DHT22;8552;48.120;-1.456;2022-09-09T17:27:29;19.70;99.90
16871;DHT22;8552;48.120;-1.456;2022-09-09T17:29:57;19.60;99.90
16871;DHT22;8552;48.120;-1.456;2022-09-09T17:32:24;19.60;99.90
16871;DHT22;8552;48.120;-1.456;2022-09-09T17:34:49;19.50;99.90
16871;DHT22;8552;48.120;-1.456;2022-09-09T17:37:15;19.50;99.90
16871;DHT22;8552;48.120;-1.456;2022-09-09T17:39:41;19.50;99.90
16871;DHT22;8552;48.120;-1.456;2022-09-09T17:42:06;19.50;99.90
16871;DHT22;8552;48.120;-1.456;2022-09-09T17:44:33;19.40;99.90